createdAt,value
2023-03-25T00:02:23.829Z,97828.47
2023-03-25T00:04:54.865Z,97832.38
2023-03-25T00:07:22.894Z,97836.13
2023-03-25T00:09:49.923Z,97832.25
2023-03-25T00:12:19.510Z,97828.50
2023-03-25T00:14:54.810Z,97831.84
2023-03-25T00:17:29.243Z,97831.84
2023-03-25T00:19:55.884Z,97837.81
2023-03-25T00:22:23.406Z,97830.72
2023-03-25T00:24:50.100Z,97822.81
2023-03-25T00:27:18.791Z,97825.75
2023-03-25T00:29:46.386Z,97826.84
2023-03-25T00:32:14.894Z,97825.47
2023-03-25T00:34:47.669Z,97831.97
2023-03-25T00:37:22.002Z,97821.28
2023-03-25T00:39:48.840Z,97829.59
2023-03-25T00:42:17.012Z,97828.47
2023-03-25T00:44:43.918Z,97828.91
2023-03-25T00:47:11.989Z,97829.56
2023-03-25T00:49:38.710Z,97827.50
2023-03-25T00:52:05.330Z,97827.91
2023-03-25T00:54:34.225Z,97826.81
2023-03-25T00:57:01.036Z,97830.13
2023-03-25T00:59:27.783Z,97822.22
2023-03-25T01:01:56.291Z,97811.38
2023-03-25T01:04:23.036Z,97804.00
2023-03-25T01:06:52.109Z,97790.53
2023-03-25T01:09:19.995Z,97779.88
2023-03-25T01:11:47.947Z,97780.41
2023-03-25T01:14:17.874Z,97785.41
2023-03-25T01:16:44.723Z,97794.72
2023-03-25T01:19:12.201Z,97801.00
2023-03-25T01:21:38.862Z,97804.56
2023-03-25T01:24:07.622Z,97809.41
2023-03-25T01:26:34.630Z,97809.28
2023-03-25T01:29:01.269Z,97814.03
2023-03-25T01:31:30.302Z,97799.84
2023-03-25T01:33:58.289Z,97802.63
2023-03-25T01:36:31.503Z,97805.13
2023-03-25T01:38:59.474Z,97794.00
2023-03-25T01:41:42.288Z,97799.00
2023-03-25T01:44:19.541Z,97804.13
2023-03-25T01:46:53.327Z,97800.66
2023-03-25T01:49:30.378Z,97797.88
2023-03-25T01:52:01.700Z,97804.44
2023-03-25T01:54:28.739Z,97808.75
2023-03-25T01:56:56.123Z,97805.41
2023-03-25T01:59:27.151Z,97808.19
2023-03-25T02:01:57.388Z,97814.59
2023-03-25T02:05:00.798Z,97804.03
2023-03-25T02:07:33.105Z,97799.41
2023-03-25T02:10:02.885Z,97796.50
2023-03-25T02:12:29.604Z,97800.81
2023-03-25T02:14:58.236Z,97809.56
2023-03-25T02:17:54.246Z,97805.69
2023-03-25T02:20:36.152Z,97815.69
2023-03-25T02:23:33.648Z,97792.78
2023-03-25T02:26:06.095Z,97799.72
2023-03-25T02:29:09.905Z,97807.63
2023-03-25T02:31:57.962Z,97804.31
2023-03-25T02:34:57.963Z,97808.22
2023-03-25T02:37:49.127Z,97808.22
2023-03-25T02:40:22.531Z,97809.72
2023-03-25T02:42:54.734Z,97803.06
2023-03-25T02:45:34.385Z,97799.91
2023-03-25T02:48:11.143Z,97798.50
2023-03-25T02:50:45.778Z,97800.16
2023-03-25T02:53:20.972Z,97799.91
2023-03-25T02:55:51.346Z,97803.50
2023-03-25T02:58:21.649Z,97802.09
2023-03-25T03:00:50.443Z,97797.66
2023-03-25T03:03:17.384Z,97793.78
2023-03-25T03:05:48.073Z,97795.59
2023-03-25T03:08:24.294Z,97791.53
2023-03-25T03:11:07.971Z,97790.88
2023-03-25T03:14:08.357Z,97791.84
2023-03-25T03:16:48.494Z,97780.44
2023-03-25T03:19:31.643Z,97773.53
2023-03-25T03:22:36.333Z,97785.06
2023-03-25T03:25:24.303Z,97797.69
2023-03-25T03:28:16.497Z,97791.34
2023-03-25T03:30:43.129Z,97796.88
2023-03-25T03:33:22.025Z,97800.88
2023-03-25T03:35:57.442Z,97788.25
2023-03-25T03:38:30.759Z,97795.78
2023-03-25T03:41:02.097Z,97784.50
2023-03-25T03:43:39.186Z,97790.06
2023-03-25T03:46:10.586Z,97780.50
2023-03-25T03:48:42.639Z,97787.97
2023-03-25T03:51:18.551Z,97797.44
2023-03-25T03:53:58.547Z,97793.13
2023-03-25T03:56:37.949Z,97793.00
2023-03-25T03:59:16.239Z,97805.47
2023-03-25T04:01:47.768Z,97799.66
2023-03-25T04:04:23.873Z,97800.50
2023-03-25T04:06:59.748Z,97797.16
2023-03-25T04:09:41.166Z,97793.81
2023-03-25T04:12:17.749Z,97793.81
2023-03-25T04:14:44.975Z,97793.56
2023-03-25T04:17:11.919Z,97791.47
2023-03-25T04:19:38.642Z,97793.28
2023-03-25T04:22:06.991Z,97792.44
2023-03-25T04:24:33.796Z,97793.41
2023-03-25T04:27:04.497Z,97796.03
2023-03-25T04:29:32.112Z,97794.13
2023-03-25T04:31:59.478Z,97782.72
2023-03-25T04:34:27.276Z,97791.75
2023-03-25T04:36:57.282Z,97798.28
2023-03-25T04:39:25.838Z,97797.44
2023-03-25T04:42:01.910Z,97796.59
2023-03-25T04:44:39.167Z,97802.72
2023-03-25T04:47:07.897Z,97791.63
2023-03-25T04:49:34.570Z,97806.03
2023-03-25T04:52:04.335Z,97809.94
2023-03-25T04:54:31.238Z,97805.75
2023-03-25T04:56:59.096Z,97802.69
2023-03-25T04:59:27.206Z,97819.50
2023-03-25T05:01:54.196Z,97806.72
2023-03-25T05:04:21.627Z,97811.16
2023-03-25T05:06:51.288Z,97816.28
2023-03-25T05:09:22.192Z,97811.13
2023-03-25T05:11:50.766Z,97799.75
2023-03-25T05:14:19.700Z,97812.34
2023-03-25T05:16:47.366Z,97817.06
2023-03-25T05:19:15.127Z,97812.88
2023-03-25T05:21:42.452Z,97808.00
2023-03-25T05:24:11.401Z,97827.84
2023-03-25T05:26:39.861Z,97831.44
2023-03-25T05:29:10.516Z,97823.09
2023-03-25T05:31:37.251Z,97814.22
2023-03-25T05:34:06.852Z,97818.53
2023-03-25T05:36:33.534Z,97819.59
2023-03-25T05:39:00.223Z,97818.63
2023-03-25T05:41:38.799Z,97822.09
2023-03-25T05:44:10.404Z,97825.31
2023-03-25T05:46:37.310Z,97821.97
2023-03-25T05:49:04.083Z,97815.59
2023-03-25T05:51:34.211Z,97824.06
2023-03-25T05:54:01.670Z,97816.25
2023-03-25T05:56:29.506Z,97816.69
2023-03-25T05:58:57.717Z,97821.84
2023-03-25T06:01:32.801Z,97820.28
2023-03-25T06:04:02.875Z,97818.97
2023-03-25T06:06:30.637Z,97828.78
2023-03-25T06:08:58.646Z,97834.66
2023-03-25T06:11:25.724Z,97836.28
2023-03-25T06:13:52.630Z,97835.19
2023-03-25T06:16:28.050Z,97833.81
2023-03-25T06:19:00.154Z,97840.66
2023-03-25T06:21:35.570Z,97840.38
2023-03-25T06:24:02.719Z,97842.75
2023-03-25T06:26:30.075Z,97844.84
2023-03-25T06:28:56.804Z,97844.84
2023-03-25T06:31:28.479Z,97855.00
2023-03-25T06:33:57.286Z,97855.69
2023-03-25T06:36:25.787Z,97858.06
2023-03-25T06:38:53.430Z,97855.44
2023-03-25T06:41:21.075Z,97866.53
2023-03-25T06:43:48.644Z,97869.56
2023-03-25T06:46:16.414Z,97867.66
2023-03-25T06:48:43.457Z,97863.47
2023-03-25T06:51:10.259Z,97869.47
2023-03-25T06:53:36.964Z,97871.38
2023-03-25T06:56:03.762Z,97878.75
2023-03-25T06:58:35.196Z,97879.03
2023-03-25T07:01:06.878Z,97872.69
2023-03-25T07:03:36.295Z,97869.63
2023-03-25T07:06:03.439Z,97879.88
2023-03-25T07:08:30.393Z,97863.50
2023-03-25T07:11:05.544Z,97868.41
2023-03-25T07:13:32.279Z,97865.19
2023-03-25T07:15:59.436Z,97862.69
2023-03-25T07:18:26.925Z,97863.81
2023-03-25T07:20:53.837Z,97869.63
2023-03-25T07:23:20.634Z,97868.41
2023-03-25T07:25:47.408Z,97871.03
2023-03-25T07:28:14.325Z,97881.03
2023-03-25T07:30:40.985Z,97879.09
2023-03-25T07:33:07.910Z,97877.03
2023-03-25T07:35:35.025Z,97874.66
2023-03-25T07:38:01.858Z,97886.75
2023-03-25T07:40:28.481Z,97876.56
2023-03-25T07:42:55.153Z,97867.13
2023-03-25T07:45:21.856Z,97860.41
2023-03-25T07:47:50.563Z,97865.41
2023-03-25T07:50:18.709Z,97869.56
2023-03-25T07:52:46.147Z,97871.69
2023-03-25T07:55:13.414Z,97868.91
2023-03-25T07:57:43.356Z,97866.59
2023-03-25T08:00:11.170Z,97872.31
2023-03-25T08:02:39.361Z,97860.66
2023-03-25T08:05:07.588Z,97852.47
2023-03-25T08:07:34.284Z,97869.81
2023-03-25T08:10:00.927Z,97864.72
2023-03-25T08:12:27.559Z,97873.50
2023-03-25T08:14:54.239Z,97870.13
2023-03-25T08:17:20.852Z,97871.69
2023-03-25T08:19:47.506Z,97872.44
2023-03-25T08:22:14.423Z,97856.91
2023-03-25T08:24:42.015Z,97880.41
2023-03-25T08:27:13.926Z,97866.78
2023-03-25T08:29:43.021Z,97872.38
2023-03-25T08:32:09.605Z,97875.81
2023-03-25T08:34:39.878Z,97865.44
2023-03-25T08:37:10.091Z,97869.75
2023-03-25T08:39:40.221Z,97875.88
2023-03-25T08:42:08.082Z,97875.81
2023-03-25T08:44:35.641Z,97864.44
2023-03-25T08:47:02.374Z,97872.19
2023-03-25T08:49:29.124Z,97884.03
2023-03-25T08:51:57.952Z,97871.44
2023-03-25T08:54:29.161Z,97877.88
2023-03-25T08:56:56.003Z,97878.72
2023-03-25T08:59:22.836Z,97868.41
2023-03-25T09:01:49.573Z,97863.13
2023-03-25T09:04:16.274Z,97874.06
2023-03-25T09:06:48.031Z,97872.53
2023-03-25T09:09:29.952Z,97861.00
2023-03-25T09:11:56.931Z,97858.22
2023-03-25T09:14:23.517Z,97864.44
2023-03-25T09:16:50.568Z,97863.56
2023-03-25T09:19:17.165Z,97870.81
2023-03-25T09:21:44.280Z,97873.16
2023-03-25T09:24:12.683Z,97867.97
2023-03-25T09:26:39.530Z,97864.50
2023-03-25T09:29:06.316Z,97868.16
2023-03-25T09:31:33.612Z,97867.47
2023-03-25T09:34:00.351Z,97879.81
2023-03-25T09:36:27.049Z,97874.53
2023-03-25T09:38:53.687Z,97879.66
2023-03-25T09:41:34.318Z,97878.88
2023-03-25T09:44:19.690Z,97861.91
2023-03-25T09:46:47.646Z,97877.66
2023-03-25T09:49:23.157Z,97877.47
2023-03-25T09:51:52.787Z,97881.34
2023-03-25T09:54:27.916Z,97882.63
2023-03-25T09:56:59.751Z,97882.25
2023-03-25T09:59:34.717Z,97882.06
2023-03-25T10:02:17.751Z,97885.03
2023-03-25T10:05:21.598Z,97873.94
2023-03-25T10:08:00.411Z,97881.47
2023-03-25T10:10:39.020Z,97889.81
2023-03-25T10:13:31.732Z,97884.00
2023-03-25T10:16:26.263Z,97882.41
2023-03-25T10:19:08.874Z,97872.44
2023-03-25T10:21:50.577Z,97863.19
2023-03-25T10:24:22.880Z,97859.19
2023-03-25T10:27:30.941Z,97858.91
2023-03-25T10:30:09.807Z,97853.09
2023-03-25T10:32:51.186Z,97840.47
2023-03-25T10:35:25.892Z,97827.16
2023-03-25T10:37:54.551Z,97817.50
2023-03-25T10:40:29.898Z,97817.50
2023-03-25T10:43:05.970Z,97821.34
2023-03-25T10:45:34.097Z,97837.00
2023-03-25T10:48:23.818Z,97816.66
2023-03-25T10:50:53.422Z,97853.09
2023-03-25T10:53:26.474Z,97862.47
2023-03-25T10:56:04.395Z,97877.09
2023-03-25T10:58:32.391Z,97892.16
2023-03-25T11:01:01.650Z,97932.13
2023-03-25T11:03:34.531Z,97947.22
2023-03-25T11:06:02.341Z,97941.84
2023-03-25T11:08:29.375Z,97937.00
2023-03-25T11:11:01.037Z,97935.88
2023-03-25T11:13:31.156Z,97950.22
2023-03-25T11:16:01.670Z,97933.56
2023-03-25T11:18:37.970Z,97945.25
2023-03-25T11:21:12.515Z,97935.06
2023-03-25T11:23:45.044Z,97942.22
2023-03-25T11:26:13.704Z,97931.00
2023-03-25T11:28:44.603Z,97890.31
2023-03-25T11:31:23.881Z,97901.06
2023-03-25T11:34:09.119Z,97918.16
2023-03-25T11:36:39.282Z,97908.88
2023-03-25T11:39:37.089Z,97920.72
2023-03-25T11:42:25.422Z,97920.88
2023-03-25T11:44:53.987Z,97913.50
2023-03-25T11:47:30.710Z,97909.06
2023-03-25T11:49:58.145Z,97911.50
2023-03-25T11:52:27.778Z,97909.75
2023-03-25T11:54:56.631Z,97913.53
2023-03-25T11:57:28.884Z,97907.63
2023-03-25T12:00:29.395Z,97906.03
2023-03-25T12:03:05.373Z,97906.16
2023-03-25T12:05:33.863Z,97894.94
2023-03-25T12:08:05.664Z,97901.16
2023-03-25T12:10:32.294Z,97907.66
2023-03-25T12:13:28.283Z,97913.25
2023-03-25T12:16:19.792Z,97905.31
2023-03-25T12:19:17.398Z,97907.56
2023-03-25T12:22:14.445Z,97887.78
2023-03-25T12:24:50.344Z,97895.28
2023-03-25T12:27:35.345Z,97889.56
2023-03-25T12:30:20.897Z,97882.38
2023-03-25T12:33:02.833Z,97887.53
2023-03-25T12:35:56.834Z,97886.13
2023-03-25T12:38:49.618Z,97880.97
2023-03-25T12:41:23.359Z,97866.84
2023-03-25T12:44:22.621Z,97871.63
2023-03-25T12:47:05.279Z,97861.50
2023-03-25T12:49:47.144Z,97867.16
2023-03-25T12:52:43.546Z,97859.22
2023-03-25T12:55:36.107Z,97867.09
2023-03-25T12:58:44.074Z,97846.25
2023-03-25T13:01:19.997Z,97852.72
2023-03-25T13:04:05.339Z,97863.06
2023-03-25T13:06:45.086Z,97864.28
2023-03-25T13:09:17.282Z,97846.50
2023-03-25T13:11:50.146Z,97844.69
2023-03-25T13:14:26.046Z,97854.84
2023-03-25T13:16:58.006Z,97860.22
2023-03-25T13:19:28.686Z,97856.56
2023-03-25T13:21:59.912Z,97843.78
2023-03-25T13:24:32.634Z,97835.72
2023-03-25T13:27:00.725Z,97831.50
2023-03-25T13:29:39.302Z,97825.28
2023-03-25T13:32:17.838Z,97819.06
2023-03-25T13:34:54.047Z,97828.94
2023-03-25T13:37:29.370Z,97813.34
2023-03-25T13:40:04.180Z,97811.50
2023-03-25T13:42:43.357Z,97800.44
2023-03-25T13:45:17.713Z,97796.72
2023-03-25T13:47:50.615Z,97805.97
2023-03-25T13:50:29.912Z,97804.16
2023-03-25T13:53:33.230Z,97817.59
2023-03-25T13:56:32.877Z,97810.44
2023-03-25T13:59:19.061Z,97806.50
2023-03-25T14:02:10.401Z,97795.63
2023-03-25T14:04:58.888Z,97793.16
2023-03-25T14:07:44.269Z,97794.84
2023-03-25T14:10:29.728Z,97782.53
2023-03-25T14:13:02.514Z,97802.78
2023-03-25T14:15:34.442Z,97788.84
2023-03-25T14:18:02.677Z,97805.25
2023-03-25T14:20:39.593Z,97814.53
2023-03-25T14:23:15.105Z,97805.38
2023-03-25T14:25:46.734Z,97812.63
2023-03-25T14:28:19.727Z,97818.66
2023-03-25T14:31:12.344Z,97819.47
2023-03-25T14:34:23.491Z,97811.03
2023-03-25T14:36:49.996Z,97810.50
2023-03-25T14:39:32.306Z,97806.44
2023-03-25T14:42:08.672Z,97810.22
2023-03-25T14:44:36.588Z,97810.94
2023-03-25T14:47:22.106Z,97808.34
2023-03-25T14:50:04.993Z,97800.19
2023-03-25T14:52:33.554Z,97797.25
2023-03-25T14:55:06.157Z,97795.53
2023-03-25T14:57:40.850Z,97800.22
2023-03-25T15:00:14.090Z,97800.81
2023-03-25T15:02:42.774Z,97801.66
2023-03-25T15:05:19.548Z,97807.00
2023-03-25T15:07:59.054Z,97800.66
2023-03-25T15:10:36.848Z,97817.94
2023-03-25T15:13:16.680Z,97812.09
2023-03-25T15:15:46.392Z,97831.59
2023-03-25T15:18:35.727Z,97846.50
2023-03-25T15:21:10.977Z,97846.88
2023-03-25T15:23:40.991Z,97866.34
2023-03-25T15:26:19.765Z,97858.38
2023-03-25T15:29:12.580Z,97854.25
2023-03-25T15:31:43.695Z,97856.97
2023-03-25T15:34:41.410Z,97845.84
2023-03-25T15:37:35.954Z,97834.06
2023-03-25T15:40:42.088Z,97826.03
2023-03-25T15:43:21.666Z,97827.28
2023-03-25T15:46:11.591Z,97817.47
2023-03-25T15:49:07.626Z,97809.00
2023-03-25T15:51:47.054Z,97825.03
2023-03-25T15:54:20.651Z,97827.88
2023-03-25T15:56:49.549Z,97814.50
2023-03-25T15:59:56.316Z,97825.53
2023-03-25T16:02:55.092Z,97822.31
2023-03-25T16:05:22.303Z,97820.19
2023-03-25T16:07:50.100Z,97815.06
2023-03-25T16:10:33.267Z,97810.13
2023-03-25T16:13:04.073Z,97813.63
2023-03-25T16:15:33.488Z,97802.28
2023-03-25T16:18:02.472Z,97808.31
2023-03-25T16:20:32.091Z,97790.72
2023-03-25T16:23:00.103Z,97796.47
2023-03-25T16:25:37.881Z,97791.53
2023-03-25T16:28:07.096Z,97798.78
2023-03-25T16:30:37.270Z,97803.25
2023-03-25T16:33:07.215Z,97799.16
2023-03-25T16:35:51.080Z,97802.34
2023-03-25T16:38:21.742Z,97812.53
2023-03-25T16:40:50.010Z,97808.25
2023-03-25T16:43:22.008Z,97819.25
2023-03-25T16:45:50.594Z,97849.47
2023-03-25T16:48:28.251Z,97849.00
2023-03-25T16:50:57.619Z,97859.81
2023-03-25T16:53:26.098Z,97877.09
2023-03-25T16:56:21.677Z,97875.69
2023-03-25T16:58:57.799Z,97891.72
2023-03-25T17:01:25.748Z,97885.44
2023-03-25T17:04:05.332Z,97906.16
2023-03-25T17:06:35.515Z,97866.56
2023-03-25T17:09:04.771Z,97863.38
2023-03-25T17:11:33.103Z,97881.84
2023-03-25T17:14:17.947Z,97874.50
2023-03-25T17:16:47.560Z,97898.25
2023-03-25T17:19:15.993Z,97884.94
2023-03-25T17:22:26.175Z,97889.34
2023-03-25T17:24:58.975Z,97884.63
2023-03-25T17:27:36.710Z,97884.94
2023-03-25T17:30:20.200Z,97888.41
2023-03-25T17:32:47.844Z,97886.59
2023-03-25T17:35:23.456Z,97893.25
2023-03-25T17:37:50.505Z,97902.16
2023-03-25T17:40:26.169Z,97896.03
2023-03-25T17:42:53.766Z,97902.16
2023-03-25T17:45:22.822Z,97908.81
2023-03-25T17:47:51.436Z,97907.97
2023-03-25T17:50:25.404Z,97895.91
2023-03-25T17:52:52.252Z,97909.91
2023-03-25T17:55:18.932Z,97927.13
2023-03-25T17:57:46.582Z,97913.53
2023-03-25T18:00:19.652Z,97901.72
2023-03-25T18:02:47.490Z,97911.44
2023-03-25T18:05:15.567Z,97922.69
2023-03-25T18:07:42.506Z,97936.59
2023-03-25T18:10:31.190Z,97927.28
2023-03-25T18:12:57.961Z,97936.44
2023-03-25T18:15:25.149Z,97941.59
2023-03-25T18:17:53.283Z,97945.19
2023-03-25T18:20:27.329Z,97942.97
2023-03-25T18:22:55.724Z,97948.25
2023-03-25T18:25:23.218Z,97961.56
2023-03-25T18:27:52.715Z,97952.69
2023-03-25T18:30:25.425Z,97967.69
2023-03-25T18:32:52.694Z,97952.81
2023-03-25T18:35:19.730Z,97957.38
2023-03-25T18:37:48.748Z,97957.78
2023-03-25T18:40:19.101Z,97952.81
2023-03-25T18:42:45.879Z,97961.56
2023-03-25T18:45:12.613Z,97956.00
2023-03-25T18:47:39.414Z,97969.31
2023-03-25T18:50:16.648Z,97954.91
2023-03-25T18:52:43.793Z,97959.34
2023-03-25T18:55:11.575Z,97961.00
2023-03-25T18:57:38.393Z,97966.84
2023-03-25T19:00:19.180Z,97973.66
2023-03-25T19:03:11.644Z,97970.47
2023-03-25T19:05:38.827Z,97972.53
2023-03-25T19:08:06.057Z,97975.31
2023-03-25T19:10:34.790Z,97976.31
2023-03-25T19:13:01.782Z,97986.84
2023-03-25T19:15:30.589Z,97975.47
2023-03-25T19:17:58.687Z,97974.03
2023-03-25T19:20:32.913Z,97973.22
2023-03-25T19:23:04.913Z,97973.22
2023-03-25T19:25:31.691Z,97966.53
2023-03-25T19:27:58.690Z,97974.03
2023-03-25T19:30:25.815Z,97978.47
2023-03-25T19:32:55.103Z,97980.38
2023-03-25T19:35:23.326Z,97987.34
2023-03-25T19:37:56.263Z,97982.06
2023-03-25T19:40:28.364Z,97975.38
2023-03-25T19:42:57.468Z,97979.53
2023-03-25T19:45:27.401Z,97984.22
2023-03-25T19:47:54.241Z,97971.50
2023-03-25T19:50:27.651Z,97974.81
2023-03-25T19:52:54.922Z,97976.50
2023-03-25T19:55:23.950Z,97976.47
2023-03-25T19:57:51.811Z,97976.06
2023-03-25T20:00:21.474Z,97985.06
2023-03-25T20:02:51.542Z,97989.66
2023-03-25T20:05:20.637Z,97998.66
2023-03-25T20:07:50.901Z,98004.78
2023-03-25T20:10:21.053Z,98002.00
2023-03-25T20:12:49.520Z,97995.06
2023-03-25T20:15:18.803Z,97980.22
2023-03-25T20:17:45.913Z,97990.03
2023-03-25T20:20:13.546Z,97979.25
2023-03-25T20:22:40.854Z,97978.28
2023-03-25T20:25:09.581Z,97982.84
2023-03-25T20:27:37.056Z,97977.84
2023-03-25T20:30:06.168Z,97973.13
2023-03-25T20:32:40.532Z,97977.53
2023-03-25T20:35:10.702Z,97975.75
2023-03-25T20:37:38.758Z,97982.22
2023-03-25T20:40:11.387Z,97975.28
2023-03-25T20:42:41.363Z,97985.28
2023-03-25T20:45:10.926Z,97986.94
2023-03-25T20:47:37.735Z,97981.81
2023-03-25T20:50:05.902Z,97985.28
2023-03-25T20:52:32.572Z,97982.72
2023-03-25T20:54:59.167Z,97985.72
2023-03-25T20:57:25.979Z,97992.13
2023-03-25T20:59:53.184Z,97985.44
2023-03-25T21:02:21.437Z,97986.41
2023-03-25T21:04:48.259Z,97975.16
2023-03-25T21:07:19.428Z,97984.41
2023-03-25T21:09:47.796Z,97976.75
2023-03-25T21:12:14.866Z,97976.06
2023-03-25T21:14:42.131Z,97974.28
2023-03-25T21:17:09.898Z,97978.44
2023-03-25T21:19:37.009Z,97975.69
2023-03-25T21:22:04.364Z,97980.13
2023-03-25T21:24:31.726Z,97993.88
2023-03-25T21:26:58.389Z,97983.72
2023-03-25T21:29:25.018Z,97989.28
2023-03-25T21:31:52.178Z,97987.06
2023-03-25T21:34:18.999Z,97990.41
2023-03-25T21:36:45.898Z,97985.38
2023-03-25T21:39:12.509Z,97978.88
2023-03-25T21:41:39.554Z,97981.50
2023-03-25T21:44:07.154Z,97976.53
2023-03-25T21:46:36.743Z,97978.06
2023-03-25T21:49:04.063Z,97983.72
2023-03-25T21:51:32.461Z,97988.13
2023-03-25T21:53:59.812Z,97988.34
2023-03-25T21:56:30.450Z,97992.75
2023-03-25T21:58:57.796Z,97992.66
2023-03-25T22:01:29.677Z,97997.06
2023-03-25T22:03:58.375Z,97989.88
2023-03-25T22:06:30.789Z,97988.53
2023-03-25T22:08:59.100Z,97985.31
2023-03-25T22:11:29.707Z,97984.63
2023-03-25T22:13:57.023Z,97978.63
2023-03-25T22:16:23.755Z,97970.72
2023-03-25T22:18:50.971Z,97981.16
2023-03-25T22:21:19.544Z,97984.34
2023-03-25T22:23:48.191Z,97990.72
2023-03-25T22:26:16.586Z,97988.91
2023-03-25T22:28:43.254Z,97993.22
2023-03-25T22:31:17.036Z,97997.06
2023-03-25T22:33:44.586Z,98015.41
2023-03-25T22:36:14.267Z,98017.88
2023-03-25T22:38:43.657Z,98024.00
2023-03-25T22:41:11.572Z,98025.34
2023-03-25T22:43:38.342Z,98033.25
2023-03-25T22:46:06.249Z,98038.78
2023-03-25T22:48:34.026Z,98046.69
2023-03-25T22:51:00.986Z,98068.97
2023-03-25T22:53:28.286Z,98064.69
2023-03-25T22:55:56.729Z,98068.03
2023-03-25T22:58:26.223Z,98065.78
2023-03-25T23:00:54.193Z,98060.50
2023-03-25T23:03:21.861Z,98060.19
2023-03-25T23:06:01.391Z,98067.25
2023-03-25T23:08:32.318Z,98055.53
2023-03-25T23:11:03.140Z,98055.81
2023-03-25T23:13:30.458Z,98056.31
2023-03-25T23:16:09.223Z,98066.06
2023-03-25T23:18:39.647Z,98064.63
2023-03-25T23:21:06.984Z,98071.56
2023-03-25T23:23:34.639Z,98062.81
2023-03-25T23:26:08.788Z,98070.16
2023-03-25T23:28:37.524Z,98066.34
2023-03-25T23:31:18.893Z,98064.22
2023-03-25T23:33:47.429Z,98057.00
2023-03-25T23:36:15.805Z,98056.31
2023-03-25T23:38:44.314Z,98060.47
2023-03-25T23:41:17.214Z,98069.59
2023-03-25T23:43:44.525Z,98064.94
2023-03-25T23:46:12.704Z,98064.81
2023-03-25T23:48:43.213Z,98058.00
2023-03-25T23:51:17.487Z,98069.38
2023-03-25T23:53:46.879Z,98062.81
2023-03-25T23:56:14.239Z,98062.69
2023-03-25T23:58:41.036Z,98061.63
